Portada
METAR-TAF:

METAR-TAF

Aeroports :

Aeroport Internacional d'Al-Ain

Al-Ain, Emirats Àrabs Units

latitud: 24-16N, longitud: 055-36E, altitud: 265 m

Observació

L'informe es va fer fa 58 minuts, a les 05:00 UTC
Vent 7 kt del Est/Sud-Est
Temperatura 18°C
Humitat 64%
Pressió 1020 hPa
Visibilitat 10 km o més
sense núvols per sota de 1500 mi sense presència de cumulonimbus.

METAR: OMAL 310500Z 11007KT CAVOK 18/11 Q1020 NOSIG

Hora: 09:58 (05:58 UTC)

Pronòstic

L'informe es va fer fa 58 minuts, a les 05:00 UTC
Pronòstic vàlid del 31 a les 06 UTC al 01 a les 12 UTC
Vent 10 kt del Sud-Est
Visibilitat: 8000 m
Evolucionant progressivament
l' 31 a les 18 UTC al 31 a les 20 UTC
Vent 6 kt del Est
Evolucionant progressivament
l' 31 a les 22 UTC al 01 a les 00 UTC
Vent 10 kt del Sud/Sud-Est
Probabilitat 30%
l' 01 a les 02 UTC al 01 a les 08 UTC
Vent 14 kt del Sud/Sud-Est

TAF: OMAL 310500Z 3106/0112 14010KT 8000 NSC BECMG 3118/3120 08006KT BECMG 3122/0100 16010KT PROB30 0102/0108 16014KT

Observacions i pronòstics meteorològics de més de 4000 aeroports (METAR i TAF).

Les estacions disponibles són els punts grocs i vermells al mapa.

Posi el ratolí al punt desitjat per veure el nom de l'estació.

Feu clic per veure les observacions i els pronòstics meteorològics.

Per canviar el mapa: feu clic els botons verds amb una creu de color negre per apropar; al botó verd amb un guió per allunyar la imatge; o en les fletxes verdes per a mapes adjacents.


METAR-TAF: